Time;durP1;ratioP1;P1;durP2;ratioP2;P2;SDS_P1;SDS_P2;PMS_P1;PMS_P2;Temp;Humidity;BMP_temperature;BMP_pressure;BME280_temperature;BME280_humidity;BME280_pressure;Samples;Min_cycle;Max_cycle;Signal;HPM_P1;HPM_P2
2022/03/29 00:00:19;;;;;;;0.30;0.30;;;;;;;;;;4972865;28;20050;-93
2022/03/29 00:02:46;;;;;;;0.30;0.30;;;;;;;;;;4973415;28;20098;-92
2022/03/29 00:05:12;;;;;;;0.50;0.50;;;;;;;;;;4973605;28;20042;-94
2022/03/29 00:07:39;;;;;;;4.32;2.38;;;;;;;;;;4973600;28;20043;-93
2022/03/29 00:10:06;;;;;;;1.17;1.00;;;;;;;;;;4982107;28;20106;-94
2022/03/29 00:12:36;;;;;;;1.98;1.25;;;;;;;;;;4972312;28;20126;-96
2022/03/29 00:15:06;;;;;;;6.85;1.25;;;;;;;;;;4972434;28;20482;-94
2022/03/29 00:17:32;;;;;;;4.07;2.47;;;;;;;;;;4956484;28;20050;-93
2022/03/29 00:19:59;;;;;;;2.35;1.85;;;;;;;;;;4957095;28;20046;-92
2022/03/29 00:22:25;;;;;;;6.25;2.47;;;;;;;;;;4956620;28;20042;-94
2022/03/29 00:24:52;;;;;;;10.82;5.07;;;;;;;;;;4940696;28;20046;-93
2022/03/29 00:27:23;;;;;;;6.70;3.13;;;;;;;;;;4956778;28;20129;-93
2022/03/29 00:29:49;;;;;;;15.15;5.18;;;;;;;;;;4956316;28;20049;-92
2022/03/29 00:32:18;;;;;;;15.20;4.75;;;;;;;;;;4956909;28;20129;-93
2022/03/29 00:34:46;;;;;;;1.65;1.15;;;;;;;;;;4957249;28;20074;-93
2022/03/29 00:37:13;;;;;;;18.08;7.22;;;;;;;;;;4955776;28;20047;-93
2022/03/29 00:39:39;;;;;;;5.65;3.08;;;;;;;;;;4956805;28;20042;-93
2022/03/29 00:42:34;;;;;;;6.65;3.03;;;;;;;;;;4957042;28;20069;-94
2022/03/29 00:45:02;;;;;;;1.20;0.88;;;;;;;;;;4957135;28;20098;-92
2022/03/29 00:47:31;;;;;;;1.00;0.75;;;;;;;;;;4956372;28;20038;-93
2022/03/29 00:49:57;;;;;;;3.33;2.45;;;;;;;;;;4957096;28;20047;-92
2022/03/29 00:52:25;;;;;;;2.55;1.33;;;;;;;;;;4973077;28;20050;-93
2022/03/29 00:54:51;;;;;;;6.72;3.83;;;;;;;;;;4956653;28;20106;-93
2022/03/29 00:57:19;;;;;;;10.48;4.85;;;;;;;;;;4956676;28;20101;-92
2022/03/29 00:59:51;;;;;;;8.65;4.53;;;;;;;;;;4958354;28;20039;-94
2022/03/29 01:02:18;;;;;;;2.80;1.77;;;;;;;;;;4957803;28;20559;-95
2022/03/29 01:04:45;;;;;;;4.40;2.05;;;;;;;;;;4942961;28;20046;-95
2022/03/29 01:07:11;;;;;;;12.82;6.55;;;;;;;;;;4958464;28;20113;-95
2022/03/29 01:09:40;;;;;;;8.15;3.53;;;;;;;;;;4958295;28;20051;-94
2022/03/29 01:12:08;;;;;;;0.75;0.75;;;;;;;;;;4941917;28;20050;-94
2022/03/29 01:14:35;;;;;;;1.58;1.20;;;;;;;;;;4973291;28;20066;-93
2022/03/29 01:19:53;;;;;;;5.82;2.28;;;;;;;;;;4989896;28;20038;-93
2022/03/29 01:22:20;;;;;;;1.85;0.82;;;;;;;;;;4956276;28;20180;-93
2022/03/29 01:24:46;;;;;;;7.13;3.55;;;;;;;;;;4956082;28;20039;-94
2022/03/29 01:27:15;;;;;;;1.00;0.65;;;;;;;;;;4954039;28;20054;-93
2022/03/29 01:29:43;;;;;;;15.48;6.35;;;;;;;;;;4955374;28;20081;-92
2022/03/29 01:32:10;;;;;;;0.28;0.28;;;;;;;;;;4955191;28;20085;-93
2022/03/29 01:34:37;;;;;;;0.20;0.20;;;;;;;;;;4955705;28;20499;-92
2022/03/29 01:37:06;;;;;;;4.53;1.45;;;;;;;;;;4955268;28;20049;-93
2022/03/29 01:39:33;;;;;;;22.50;6.10;;;;;;;;;;4955835;28;20047;-92
2022/03/29 01:42:00;;;;;;;0.70;0.70;;;;;;;;;;4955662;28;20043;-94
2022/03/29 01:44:28;;;;;;;0.50;0.50;;;;;;;;;;4956008;28;20054;-94
2022/03/29 01:46:54;;;;;;;0.88;0.73;;;;;;;;;;4956470;28;20046;-94
2022/03/29 01:49:23;;;;;;;0.55;0.47;;;;;;;;;;4956818;28;20106;-93
2022/03/29 01:51:50;;;;;;;3.72;2.30;;;;;;;;;;4940501;28;20109;-94
2022/03/29 01:54:18;;;;;;;0.50;0.43;;;;;;;;;;4956106;28;20078;-92
2022/03/29 01:56:45;;;;;;;0.30;0.30;;;;;;;;;;4955644;28;20035;-94
2022/03/29 01:59:14;;;;;;;2.40;1.95;;;;;;;;;;4956503;28;20098;-93
2022/03/29 02:01:44;;;;;;;0.30;0.30;;;;;;;;;;4956614;28;20042;-94
2022/03/29 02:04:11;;;;;;;1.30;1.10;;;;;;;;;;4956416;28;20051;-94
2022/03/29 02:06:37;;;;;;;0.40;0.40;;;;;;;;;;4956943;28;20075;-93
2022/03/29 02:09:06;;;;;;;1.17;0.90;;;;;;;;;;4971577;28;20046;-94
2022/03/29 02:11:33;;;;;;;0.47;0.47;;;;;;;;;;4957150;28;20035;-93
2022/03/29 02:13:59;;;;;;;0.30;0.30;;;;;;;;;;4956783;28;20051;-95
2022/03/29 02:16:25;;;;;;;0.65;0.65;;;;;;;;;;4941170;28;20047;-94
2022/03/29 02:18:52;;;;;;;1.33;0.98;;;;;;;;;;4956466;28;20066;-92
2022/03/29 02:21:18;;;;;;;0.28;0.28;;;;;;;;;;4956753;28;20046;-95
2022/03/29 02:23:44;;;;;;;0.30;0.30;;;;;;;;;;4956730;28;20066;-95
2022/03/29 02:26:10;;;;;;;0.20;0.20;;;;;;;;;;4971731;28;20058;-94
2022/03/29 02:28:37;;;;;;;1.00;0.65;;;;;;;;;;4940335;28;20039;-95
2022/03/29 02:31:03;;;;;;;2.53;0.90;;;;;;;;;;4956352;28;20125;-93
2022/03/29 02:33:29;;;;;;;0.52;0.52;;;;;;;;;;4957074;28;20114;-95
2022/03/29 02:35:56;;;;;;;0.30;0.30;;;;;;;;;;4957296;28;20042;-95
2022/03/29 02:38:22;;;;;;;0.75;0.75;;;;;;;;;;4972423;28;20114;-93
2022/03/29 02:40:48;;;;;;;1.08;0.85;;;;;;;;;;4956497;28;20043;-93
2022/03/29 02:43:14;;;;;;;5.38;1.85;;;;;;;;;;4956107;28;20039;-94
2022/03/29 02:45:41;;;;;;;1.83;1.25;;;;;;;;;;4956023;28;20039;-93
2022/03/29 02:48:11;;;;;;;0.38;0.38;;;;;;;;;;4972952;28;20042;-95
2022/03/29 02:50:40;;;;;;;2.17;1.35;;;;;;;;;;4956865;28;20039;-94
2022/03/29 02:53:08;;;;;;;2.25;1.02;;;;;;;;;;4956767;28;20050;-94
2022/03/29 02:55:35;;;;;;;2.92;2.20;;;;;;;;;;4956981;28;20089;-95
2022/03/29 02:58:01;;;;;;;0.50;0.50;;;;;;;;;;4956161;28;20066;-95
2022/03/29 03:00:33;;;;;;;0.55;0.55;;;;;;;;;;4956675;28;20053;-94
2022/03/29 03:03:03;;;;;;;6.30;1.83;;;;;;;;;;4955894;28;20077;-94
2022/03/29 03:05:31;;;;;;;1.67;1.55;;;;;;;;;;4953581;28;20078;-91
2022/03/29 03:07:57;;;;;;;2.78;1.35;;;;;;;;;;4956080;28;20039;-94
2022/03/29 03:10:25;;;;;;;0.75;0.60;;;;;;;;;;4959210;28;20077;-94
2022/03/29 03:12:51;;;;;;;7.45;4.38;;;;;;;;;;4990639;28;20046;-94
2022/03/29 03:15:18;;;;;;;2.00;1.30;;;;;;;;;;4990939;28;20042;-94
2022/03/29 03:17:47;;;;;;;9.48;4.90;;;;;;;;;;4990528;28;20054;-95
2022/03/29 03:20:17;;;;;;;7.45;3.65;;;;;;;;;;4990373;28;20106;-95
2022/03/29 03:22:44;;;;;;;9.18;3.65;;;;;;;;;;4990656;28;20050;-94
2022/03/29 03:25:11;;;;;;;1.58;1.25;;;;;;;;;;4990844;28;20042;-94
2022/03/29 03:27:38;;;;;;;1.73;1.23;;;;;;;;;;4990094;28;20069;-94
2022/03/29 03:30:05;;;;;;;10.77;3.75;;;;;;;;;;4990018;28;20042;-94
2022/03/29 03:32:40;;;;;;;0.77;0.77;;;;;;;;;;4989110;28;20054;-95
2022/03/29 03:35:06;;;;;;;0.77;0.40;;;;;;;;;;4990174;28;20052;-95
2022/03/29 03:37:35;;;;;;;2.55;1.38;;;;;;;;;;4990728;28;20061;-94
2022/03/29 03:40:03;;;;;;;5.20;3.58;;;;;;;;;;4991197;28;20105;-94
2022/03/29 03:42:30;;;;;;;5.10;2.58;;;;;;;;;;4990522;28;20070;-94
2022/03/29 03:44:58;;;;;;;0.93;0.85;;;;;;;;;;4989812;28;20534;-93
2022/03/29 03:47:25;;;;;;;1.48;1.13;;;;;;;;;;4989371;28;20467;-94
2022/03/29 03:49:51;;;;;;;2.75;1.08;;;;;;;;;;4989635;28;20041;-94
2022/03/29 03:52:17;;;;;;;10.13;2.80;;;;;;;;;;4990231;28;20046;-94
2022/03/29 03:54:44;;;;;;;12.93;5.50;;;;;;;;;;4989497;28;20046;-91
2022/03/29 03:57:10;;;;;;;14.65;5.25;;;;;;;;;;4989289;28;20050;-94
2022/03/29 03:59:36;;;;;;;8.90;4.15;;;;;;;;;;5005247;28;20046;-94
2022/03/29 04:02:03;;;;;;;1.90;1.63;;;;;;;;;;5005462;28;20069;-94
2022/03/29 04:04:29;;;;;;;0.30;0.30;;;;;;;;;;4973565;28;20170;-92
2022/03/29 04:06:55;;;;;;;0.32;0.32;;;;;;;;;;4958360;28;20049;-94
2022/03/29 04:09:25;;;;;;;0.40;0.40;;;;;;;;;;5015933;28;20046;-94
2022/03/29 04:11:51;;;;;;;3.53;1.95;;;;;;;;;;4993217;28;20048;-94
2022/03/29 04:14:17;;;;;;;5.53;2.58;;;;;;;;;;4977421;28;20039;-94
2022/03/29 04:16:44;;;;;;;10.40;5.30;;;;;;;;;;4965986;28;20088;-92
2022/03/29 04:19:10;;;;;;;4.97;2.88;;;;;;;;;;4961755;28;20377;-93
2022/03/29 04:21:36;;;;;;;15.57;5.90;;;;;;;;;;4960646;28;20056;-94
2022/03/29 04:24:03;;;;;;;5.47;2.92;;;;;;;;;;4993231;28;20096;-93
2022/03/29 04:26:30;;;;;;;2.83;1.52;;;;;;;;;;4992786;28;20042;-94
2022/03/29 04:28:59;;;;;;;1.00;0.93;;;;;;;;;;4984617;28;20050;-95
2022/03/29 04:31:28;;;;;;;0.52;0.40;;;;;;;;;;4969789;28;20047;-93
2022/03/29 04:33:54;;;;;;;2.15;1.45;;;;;;;;;;4959243;28;20070;-95
2022/03/29 04:36:25;;;;;;;0.20;0.20;;;;;;;;;;4958615;28;20059;-93
2022/03/29 04:38:52;;;;;;;0.52;0.52;;;;;;;;;;4967592;28;20045;-93
2022/03/29 04:41:21;;;;;;;1.33;1.23;;;;;;;;;;4977554;28;20570;-91
2022/03/29 04:43:53;;;;;;;1.05;0.95;;;;;;;;;;4995449;28;20101;-93
2022/03/29 04:46:19;;;;;;;0.65;0.65;;;;;;;;;;4976359;28;20078;-93
2022/03/29 04:48:48;;;;;;;0.52;0.45;;;;;;;;;;4958838;28;20042;-95
2022/03/29 04:51:14;;;;;;;1.48;1.38;;;;;;;;;;4999588;28;20052;-93
2022/03/29 04:53:43;;;;;;;1.52;1.20;;;;;;;;;;4989103;28;20081;-93
2022/03/29 04:56:10;;;;;;;5.72;2.00;;;;;;;;;;4977803;28;20113;-95
2022/03/29 04:58:38;;;;;;;0.20;0.20;;;;;;;;;;4961520;28;20105;-94
2022/03/29 05:01:07;;;;;;;1.45;1.30;;;;;;;;;;4981825;28;20084;-94
2022/03/29 05:03:34;;;;;;;2.65;1.45;;;;;;;;;;4995310;28;20038;-93
2022/03/29 05:06:02;;;;;;;0.20;0.20;;;;;;;;;;4975740;28;20045;-93
2022/03/29 05:08:28;;;;;;;4.85;2.72;;;;;;;;;;4977953;28;20129;-93
2022/03/29 05:10:56;;;;;;;2.60;1.70;;;;;;;;;;4971667;28;20069;-94
2022/03/29 05:13:25;;;;;;;0.30;0.30;;;;;;;;;;5013430;28;20042;-95
2022/03/29 05:15:56;;;;;;;0.20;0.20;;;;;;;;;;4995720;28;20047;-93
2022/03/29 05:18:22;;;;;;;0.85;0.85;;;;;;;;;;4957888;28;20051;-92
2022/03/29 05:20:48;;;;;;;0.30;0.30;;;;;;;;;;4979048;28;20042;-93
2022/03/29 05:23:22;;;;;;;6.80;1.85;;;;;;;;;;4989964;28;20049;-93
2022/03/29 05:25:49;;;;;;;0.20;0.20;;;;;;;;;;5011336;28;20042;-95
2022/03/29 05:28:17;;;;;;;3.13;2.15;;;;;;;;;;4980466;28;20034;-94
2022/03/29 05:30:44;;;;;;;5.05;2.25;;;;;;;;;;4984115;28;20039;-93
2022/03/29 05:33:15;;;;;;;8.70;2.72;;;;;;;;;;4994033;28;20101;-92
2022/03/29 05:35:43;;;;;;;0.60;0.60;;;;;;;;;;4996366;28;20122;-95
2022/03/29 05:38:09;;;;;;;0.52;0.52;;;;;;;;;;4973359;28;20047;-96
2022/03/29 05:40:37;;;;;;;3.10;1.55;;;;;;;;;;4956960;28;20186;-93
2022/03/29 05:43:11;;;;;;;11.80;5.82;;;;;;;;;;4956581;28;20042;-93
2022/03/29 05:45:37;;;;;;;2.97;2.00;;;;;;;;;;4958615;28;20047;-94
2022/03/29 05:50:48;;;;;;;1.27;1.00;;;;;;;;;;4999785;28;20046;-95
2022/03/29 05:53:15;;;;;;;4.05;2.22;;;;;;;;;;4978999;28;20139;-94
2022/03/29 05:55:41;;;;;;;2.38;1.83;;;;;;;;;;4992220;28;20074;-94
2022/03/29 05:58:10;;;;;;;0.30;0.30;;;;;;;;;;4976384;28;20116;-95
2022/03/29 06:00:36;;;;;;;2.90;1.80;;;;;;;;;;4962033;28;20042;-95
2022/03/29 06:03:02;;;;;;;0.40;0.40;;;;;;;;;;4995720;28;20499;-90
2022/03/29 07:33:56;;;;;;;1.33;1.05;;;;;;;;;;4987832;28;20050;-92
2022/03/29 07:36:25;;;;;;;1.35;1.23;;;;;;;;;;4959451;28;20043;-91
2022/03/29 07:38:56;;;;;;;1.38;0.85;;;;;;;;;;4952568;29;20045;-93
2022/03/29 07:41:22;;;;;;;0.30;0.30;;;;;;;;;;4972321;28;20063;-92
2022/03/29 07:43:48;;;;;;;0.28;0.28;;;;;;;;;;4966673;28;20043;-94
2022/03/29 07:46:24;;;;;;;7.00;3.92;;;;;;;;;;4955559;28;20121;-93
2022/03/29 07:48:50;;;;;;;20.02;8.35;;;;;;;;;;4964774;28;20102;-94
2022/03/29 07:51:34;;;;;;;14.85;6.43;;;;;;;;;;4956595;28;20098;-93
2022/03/29 07:54:08;;;;;;;14.55;5.80;;;;;;;;;;4951849;28;20058;-94
2022/03/29 07:56:41;;;;;;;28.95;10.43;;;;;;;;;;4972777;28;20046;-94
2022/03/29 07:59:11;;;;;;;9.93;5.35;;;;;;;;;;4965447;28;20043;-96
2022/03/29 08:01:38;;;;;;;0.93;0.90;;;;;;;;;;4969406;28;20042;-96
2022/03/29 08:04:07;;;;;;;12.63;5.80;;;;;;;;;;4962820;28;20047;-94
2022/03/29 09:04:11;;;;;;;0.10;0.10;;;;;;;;;;5005313;28;20060;-89
2022/03/29 09:06:58;;;;;;;1.73;0.93;;;;;;;;;;4972228;28;20302;-90
2022/03/29 09:09:44;;;;;;;0.40;0.40;;;;;;;;;;4964346;28;20041;-90
2022/03/29 09:12:14;;;;;;;2.67;1.50;;;;;;;;;;4986486;28;20042;-89
2022/03/29 09:14:52;;;;;;;9.98;4.22;;;;;;;;;;4978233;28;20042;-89
2022/03/29 09:17:45;;;;;;;13.25;3.22;;;;;;;;;;4976664;28;20565;-92
2022/03/29 09:20:21;;;;;;;28.45;8.50;;;;;;;;;;4981644;28;20050;-90
2022/03/29 09:22:49;;;;;;;30.27;11.95;;;;;;;;;;4976423;28;20080;-90
2022/03/29 09:25:35;;;;;;;14.15;5.57;;;;;;;;;;4987636;28;20038;-90
2022/03/29 09:28:04;;;;;;;18.45;7.13;;;;;;;;;;4968502;28;20042;-91
2022/03/29 09:30:38;;;;;;;10.32;2.92;;;;;;;;;;4991076;28;20078;-95
2022/03/29 09:33:28;;;;;;;17.00;5.85;;;;;;;;;;4972316;28;20089;-92
2022/03/29 09:35:59;;;;;;;37.25;10.25;;;;;;;;;;4976945;28;20110;-93
2022/03/29 09:38:26;;;;;;;4.70;2.83;;;;;;;;;;4986166;28;20926;-91
2022/03/29 09:40:53;;;;;;;3.20;2.28;;;;;;;;;;4985329;28;20077;-91
2022/03/29 09:43:22;;;;;;;13.40;6.53;;;;;;;;;;4974197;28;20065;-90
2022/03/29 09:46:00;;;;;;;9.27;4.75;;;;;;;;;;4980343;28;20042;-91
2022/03/29 09:48:38;;;;;;;0.28;0.28;;;;;;;;;;4989594;28;20042;-93
2022/03/29 09:51:12;;;;;;;2.45;1.75;;;;;;;;;;4977604;28;20042;-92
2022/03/29 09:53:58;;;;;;;8.27;3.78;;;;;;;;;;5005381;28;20045;-93
2022/03/29 09:56:30;;;;;;;19.10;5.85;;;;;;;;;;4971112;28;20074;-95
2022/03/29 09:59:04;;;;;;;0.45;0.45;;;;;;;;;;5007194;28;20414;-94
2022/03/29 10:01:32;;;;;;;0.20;0.20;;;;;;;;;;4986534;28;20054;-94
2022/03/29 10:04:01;;;;;;;33.35;6.40;;;;;;;;;;4977314;28;20596;-90
2022/03/29 10:06:27;;;;;;;4.72;2.53;;;;;;;;;;4975683;28;20037;-89
2022/03/29 11:26:58;;;;;;;10.70;5.05;;;;;;;;;;4989269;28;20437;-91
2022/03/29 11:29:29;;;;;;;15.45;5.35;;;;;;;;;;4972883;28;20069;-91
2022/03/29 11:31:56;;;;;;;24.92;8.32;;;;;;;;;;4955275;28;20066;-89
2022/03/29 11:34:22;;;;;;;3.35;1.55;;;;;;;;;;4959587;28;20062;-90
2022/03/29 11:36:48;;;;;;;14.77;5.65;;;;;;;;;;4962636;28;20050;-89
2022/03/29 11:39:25;;;;;;;3.55;2.40;;;;;;;;;;4950996;28;20046;-92
2022/03/29 11:42:06;;;;;;;0.15;0.15;;;;;;;;;;4963277;28;20046;-94
2022/03/29 11:44:32;;;;;;;3.28;1.70;;;;;;;;;;4958346;28;20151;-94
2022/03/29 11:47:18;;;;;;;10.45;1.95;;;;;;;;;;4951642;28;20046;-95
2022/03/29 11:49:50;;;;;;;9.10;3.50;;;;;;;;;;4950980;28;20422;-95
2022/03/29 11:52:32;;;;;;;6.10;3.47;;;;;;;;;;4957789;28;20039;-93
2022/03/29 11:54:58;;;;;;;16.13;7.43;;;;;;;;;;4984563;28;20042;-90
2022/03/29 11:57:25;;;;;;;11.25;3.22;;;;;;;;;;4947604;28;20043;-91
2022/03/29 11:59:58;;;;;;;15.48;4.05;;;;;;;;;;4957444;28;20040;-95
2022/03/29 12:02:27;;;;;;;12.88;4.88;;;;;;;;;;4959749;28;20057;-95
2022/03/29 12:04:55;;;;;;;10.32;2.30;;;;;;;;;;4961576;28;20050;-95
2022/03/29 12:07:45;;;;;;;4.05;2.35;;;;;;;;;;4971565;28;20059;-96
2022/03/29 12:10:34;;;;;;;0.80;0.65;;;;;;;;;;4955634;28;20101;-96
2022/03/29 12:13:05;;;;;;;15.43;7.70;;;;;;;;;;4959575;28;20054;-96
2022/03/29 12:15:40;;;;;;;13.15;5.25;;;;;;;;;;4964384;28;20075;-94
2022/03/29 12:20:57;;;;;;;2.92;2.17;;;;;;;;;;4994127;28;20499;-94
2022/03/29 12:23:24;;;;;;;10.45;2.78;;;;;;;;;;4975991;28;20098;-96
2022/03/29 12:26:11;;;;;;;0.35;0.35;;;;;;;;;;4957257;28;20047;-95
2022/03/29 12:41:56;;;;;;;4.68;2.83;;;;;;;;;;4962900;28;20036;-93
2022/03/29 12:44:31;;;;;;;10.07;4.45;;;;;;;;;;4934105;29;20040;-95
2022/03/29 12:47:01;;;;;;;12.60;5.35;;;;;;;;;;4956346;28;20051;-95
2022/03/29 12:49:35;;;;;;;4.03;1.05;;;;;;;;;;4927791;29;20074;-95
2022/03/29 12:52:02;;;;;;;8.65;4.28;;;;;;;;;;4949200;29;20071;-96
2022/03/29 12:54:50;;;;;;;18.02;4.25;;;;;;;;;;4938325;28;20039;-95
2022/03/29 12:57:18;;;;;;;16.25;6.43;;;;;;;;;;4936276;29;20070;-95
2022/03/29 12:59:46;;;;;;;19.48;7.95;;;;;;;;;;4951160;29;20047;-96
2022/03/29 13:02:34;;;;;;;4.88;1.63;;;;;;;;;;4953231;29;20039;-96
2022/03/29 13:05:14;;;;;;;5.28;3.25;;;;;;;;;;4958351;29;20070;-96
2022/03/29 13:08:01;;;;;;;6.45;2.15;;;;;;;;;;4972382;28;20050;-96
2022/03/29 14:07:36;;;;;;;14.93;6.55;;;;;;;;;;4958417;28;20056;-92
2022/03/29 14:10:02;;;;;;;19.95;7.97;;;;;;;;;;4927663;29;20035;-94
2022/03/29 14:12:29;;;;;;;17.13;7.38;;;;;;;;;;4931640;29;20070;-93
2022/03/29 14:14:55;;;;;;;8.55;4.60;;;;;;;;;;4934910;29;20050;-93
2022/03/29 14:17:21;;;;;;;18.73;7.13;;;;;;;;;;4944016;28;20536;-93
2022/03/29 14:19:50;;;;;;;27.15;7.60;;;;;;;;;;4938788;29;20232;-91
2022/03/29 14:22:16;;;;;;;17.73;7.35;;;;;;;;;;4943434;29;20047;-93
2022/03/29 14:24:47;;;;;;;18.05;7.53;;;;;;;;;;4933765;29;20194;-93
2022/03/29 14:27:24;;;;;;;5.85;3.10;;;;;;;;;;4950483;29;20039;-93
2022/03/29 14:29:50;;;;;;;7.70;3.65;;;;;;;;;;4934640;29;20035;-93
2022/03/29 14:32:21;;;;;;;18.08;6.70;;;;;;;;;;4935595;29;20046;-93
2022/03/29 14:34:48;;;;;;;20.52;7.35;;;;;;;;;;4951490;29;20047;-92
2022/03/29 14:37:14;;;;;;;10.55;4.13;;;;;;;;;;4931092;29;20572;-92
2022/03/29 14:39:41;;;;;;;17.52;7.10;;;;;;;;;;4932554;29;20066;-92
2022/03/29 14:42:07;;;;;;;16.98;6.75;;;;;;;;;;4932853;29;20047;-90
2022/03/29 14:44:34;;;;;;;21.75;8.35;;;;;;;;;;4937562;29;20039;-95
2022/03/29 14:47:08;;;;;;;23.90;8.18;;;;;;;;;;4935106;29;20445;-93
2022/03/29 14:49:37;;;;;;;22.02;7.90;;;;;;;;;;4935030;29;20382;-95
2022/03/29 14:52:07;;;;;;;11.35;4.88;;;;;;;;;;4934523;29;20107;-94
2022/03/29 14:54:39;;;;;;;22.98;6.45;;;;;;;;;;4936096;29;20039;-94
2022/03/29 14:57:38;;;;;;;10.00;4.63;;;;;;;;;;4933812;28;20034;-93
2022/03/29 15:00:09;;;;;;;15.38;4.45;;;;;;;;;;4945128;29;20074;-94
2022/03/29 15:02:38;;;;;;;17.25;5.47;;;;;;;;;;4948727;29;20050;-93
2022/03/29 15:05:10;;;;;;;14.95;6.47;;;;;;;;;;4934535;29;20043;-94
2022/03/29 15:07:47;;;;;;;14.80;4.10;;;;;;;;;;4935017;28;20051;-94
2022/03/29 15:10:14;;;;;;;16.05;5.85;;;;;;;;;;4948415;29;20067;-94
2022/03/29 15:12:43;;;;;;;23.48;8.32;;;;;;;;;;4946572;29;20050;-94
2022/03/29 15:15:10;;;;;;;11.05;4.63;;;;;;;;;;4933782;29;20130;-94
2022/03/29 15:17:46;;;;;;;13.90;5.22;;;;;;;;;;4934497;29;20035;-95
2022/03/29 15:20:18;;;;;;;13.32;5.25;;;;;;;;;;4950437;29;20131;-95
2022/03/29 15:23:02;;;;;;;22.48;6.82;;;;;;;;;;4931056;29;20054;-94
2022/03/29 15:25:36;;;;;;;21.88;5.75;;;;;;;;;;4933389;29;20053;-94
2022/03/29 15:28:12;;;;;;;7.65;2.70;;;;;;;;;;4930902;29;20047;-95
2022/03/29 15:30:44;;;;;;;12.07;4.20;;;;;;;;;;4950396;29;20039;-95
2022/03/29 15:33:29;;;;;;;12.20;5.18;;;;;;;;;;4933960;29;20134;-95
2022/03/29 15:36:02;;;;;;;14.18;5.22;;;;;;;;;;4934025;29;20051;-95
2022/03/29 15:38:38;;;;;;;16.63;6.78;;;;;;;;;;4932739;29;20776;-94
2022/03/29 15:41:17;;;;;;;18.55;7.50;;;;;;;;;;4950477;29;20043;-95
2022/03/29 15:43:54;;;;;;;11.20;4.82;;;;;;;;;;4928465;29;20528;-95
2022/03/29 15:46:52;;;;;;;17.15;5.25;;;;;;;;;;4949816;29;20039;-95
2022/03/29 15:49:26;;;;;;;17.33;6.32;;;;;;;;;;4931358;29;20038;-94
2022/03/29 15:51:57;;;;;;;14.10;5.55;;;;;;;;;;4932627;29;20067;-94
2022/03/29 15:54:30;;;;;;;11.82;4.97;;;;;;;;;;4927691;29;20039;-94
2022/03/29 15:57:10;;;;;;;11.10;4.18;;;;;;;;;;4930421;29;20053;-95
2022/03/29 15:59:43;;;;;;;6.60;2.10;;;;;;;;;;4931668;29;20083;-95
2022/03/29 16:02:19;;;;;;;9.85;3.20;;;;;;;;;;4932148;29;20722;-94
2022/03/29 16:04:50;;;;;;;13.85;4.15;;;;;;;;;;4932726;29;20433;-94
2022/03/29 16:07:22;;;;;;;15.05;4.72;;;;;;;;;;4928351;29;20039;-93
2022/03/29 16:12:47;;;;;;;14.60;3.53;;;;;;;;;;4948698;29;20500;-94
2022/03/29 16:15:21;;;;;;;15.18;4.20;;;;;;;;;;4949876;29;20039;-94
2022/03/29 16:17:47;;;;;;;14.32;4.20;;;;;;;;;;4950609;29;20090;-94
2022/03/29 16:20:22;;;;;;;12.35;4.07;;;;;;;;;;4932145;29;20097;-94
2022/03/29 16:22:49;;;;;;;18.20;3.50;;;;;;;;;;4928298;29;20059;-93
2022/03/29 16:25:16;;;;;;;9.73;2.53;;;;;;;;;;4943755;29;20040;-94
2022/03/29 16:27:46;;;;;;;8.15;3.38;;;;;;;;;;4931883;29;20100;-94
2022/03/29 16:30:14;;;;;;;11.57;4.88;;;;;;;;;;4933118;29;20071;-93
2022/03/29 16:32:42;;;;;;;11.07;4.90;;;;;;;;;;4936242;29;20055;-93
2022/03/29 16:35:09;;;;;;;16.77;5.45;;;;;;;;;;4931674;29;20054;-93
2022/03/29 16:37:38;;;;;;;10.13;3.33;;;;;;;;;;4938150;28;20036;-92
2022/03/29 16:40:12;;;;;;;13.63;2.88;;;;;;;;;;4936066;28;20047;-92
2022/03/29 16:42:39;;;;;;;16.27;4.82;;;;;;;;;;4933386;29;20039;-94
2022/03/29 16:45:17;;;;;;;7.38;2.88;;;;;;;;;;4937916;29;20043;-93
2022/03/29 16:47:49;;;;;;;10.73;3.70;;;;;;;;;;4933998;29;20046;-94
2022/03/29 16:50:41;;;;;;;6.32;1.42;;;;;;;;;;4917184;29;20051;-96
2022/03/29 16:53:10;;;;;;;6.53;2.72;;;;;;;;;;4952560;29;20051;-92
2022/03/29 16:55:37;;;;;;;8.85;3.15;;;;;;;;;;4937963;29;20063;-93
2022/03/29 16:58:03;;;;;;;10.55;2.83;;;;;;;;;;4935626;29;20106;-92
2022/03/29 17:00:47;;;;;;;12.52;4.43;;;;;;;;;;4950823;29;20039;-93
2022/03/29 17:03:29;;;;;;;4.30;1.83;;;;;;;;;;4951518;29;20051;-94
2022/03/29 17:05:58;;;;;;;7.80;2.80;;;;;;;;;;4950610;28;20037;-93
2022/03/29 17:08:34;;;;;;;9.15;2.92;;;;;;;;;;4933855;29;20061;-94
2022/03/29 17:11:08;;;;;;;7.13;3.20;;;;;;;;;;4950506;29;20040;-95
2022/03/29 17:13:42;;;;;;;12.35;4.65;;;;;;;;;;4932764;29;20043;-94
2022/03/29 17:16:13;;;;;;;7.22;3.33;;;;;;;;;;4945520;29;20112;-94
2022/03/29 17:18:42;;;;;;;2.42;1.20;;;;;;;;;;4933934;29;20067;-94
2022/03/29 17:21:08;;;;;;;7.53;2.58;;;;;;;;;;4930349;29;20047;-93
2022/03/29 17:23:37;;;;;;;3.55;2.08;;;;;;;;;;4928932;29;20122;-94
2022/03/29 17:26:06;;;;;;;0.65;0.65;;;;;;;;;;4936343;29;20043;-94
2022/03/29 17:28:33;;;;;;;15.77;3.67;;;;;;;;;;4933242;29;20071;-94
2022/03/29 17:31:05;;;;;;;3.13;1.75;;;;;;;;;;4934570;29;20079;-94
2022/03/29 17:33:34;;;;;;;2.65;1.88;;;;;;;;;;4931376;29;20070;-95
2022/03/29 17:36:06;;;;;;;7.00;2.20;;;;;;;;;;4935311;29;20050;-94
2022/03/29 17:38:35;;;;;;;3.53;1.98;;;;;;;;;;4934699;28;20079;-94
2022/03/29 17:41:09;;;;;;;5.88;2.10;;;;;;;;;;4949781;28;20039;-95
2022/03/29 17:43:38;;;;;;;1.80;1.58;;;;;;;;;;4930415;29;20055;-94
2022/03/29 17:46:09;;;;;;;7.88;2.72;;;;;;;;;;4939237;28;20042;-93
2022/03/29 17:48:35;;;;;;;6.43;2.40;;;;;;;;;;4937454;29;20043;-94
2022/03/29 17:51:04;;;;;;;0.65;0.50;;;;;;;;;;4929156;29;20074;-94
2022/03/29 17:53:36;;;;;;;2.65;1.10;;;;;;;;;;4934279;29;20106;-94
2022/03/29 17:56:10;;;;;;;2.33;0.88;;;;;;;;;;4951313;29;20039;-93
2022/03/29 17:58:45;;;;;;;1.60;0.77;;;;;;;;;;4935950;29;20043;-94
2022/03/29 18:01:13;;;;;;;1.65;0.93;;;;;;;;;;4951718;29;20047;-95
2022/03/29 18:03:42;;;;;;;3.10;1.63;;;;;;;;;;4935216;29;20040;-94
2022/03/29 18:06:08;;;;;;;3.30;2.42;;;;;;;;;;4935226;29;20132;-94
2022/03/29 18:08:37;;;;;;;3.30;1.38;;;;;;;;;;4947716;29;20058;-94
2022/03/29 18:11:06;;;;;;;9.60;1.83;;;;;;;;;;4943099;29;20042;-95
2022/03/29 18:13:41;;;;;;;2.53;1.52;;;;;;;;;;4935393;28;20523;-94
2022/03/29 18:16:09;;;;;;;11.43;2.83;;;;;;;;;;4936055;28;20050;-94
2022/03/29 18:18:39;;;;;;;1.92;1.52;;;;;;;;;;4937324;28;20394;-94
2022/03/29 18:21:40;;;;;;;;;;;;;;;;;;;;;
2022/03/29 18:35:00;;;;;;;2.33;1.50;;;;;;;;;;4811058;29;20065;-93
2022/03/29 18:44:40;;;;;;;2.95;1.70;;;;;;;;;;4840510;29;20090;-94
2022/03/29 18:47:53;;;;;;;3.22;2.33;;;;;;;;;;4856435;29;20554;-93
2022/03/29 18:57:24;;;;;;;0.28;0.28;;;;;;;;;;4843811;29;20046;-95
2022/03/29 19:00:01;;;;;;;3.50;1.55;;;;;;;;;;4916796;29;20527;-95
2022/03/29 19:02:31;;;;;;;6.25;2.30;;;;;;;;;;4944808;29;20393;-95
2022/03/29 19:04:59;;;;;;;5.93;2.35;;;;;;;;;;4948858;29;20043;-94
2022/03/29 19:07:37;;;;;;;0.60;0.60;;;;;;;;;;4945533;29;20039;-95
2022/03/29 19:10:12;;;;;;;6.05;1.58;;;;;;;;;;4949391;29;20038;-95
2022/03/29 19:12:43;;;;;;;0.57;0.57;;;;;;;;;;4931185;29;20449;-94
2022/03/29 19:15:17;;;;;;;7.82;2.65;;;;;;;;;;4949107;29;20039;-94
2022/03/29 19:17:56;;;;;;;2.67;1.50;;;;;;;;;;4932899;29;20046;-95
2022/03/29 19:20:27;;;;;;;8.73;2.92;;;;;;;;;;4932954;29;20042;-94
2022/03/29 19:23:09;;;;;;;;;;;;;;;;;;;;;
2022/03/29 19:25:40;;;;;;;3.00;1.75;;;;;;;;;;4949309;29;20117;-94
2022/03/29 19:28:12;;;;;;;3.58;1.67;;;;;;;;;;4949555;29;20540;-94
2022/03/29 19:30:41;;;;;;;3.92;1.45;;;;;;;;;;4932559;29;20047;-94
2022/03/29 19:33:08;;;;;;;10.32;4.05;;;;;;;;;;4933762;28;20044;-95
2022/03/29 19:35:37;;;;;;;3.30;1.50;;;;;;;;;;4933208;29;20039;-94
2022/03/29 19:38:04;;;;;;;1.95;1.15;;;;;;;;;;4931862;29;20051;-95
2022/03/29 19:40:33;;;;;;;1.50;1.23;;;;;;;;;;4931585;29;20118;-94
2022/03/29 19:43:21;;;;;;;4.50;2.22;;;;;;;;;;4948386;29;20062;-95
2022/03/29 19:45:49;;;;;;;0.98;0.90;;;;;;;;;;4924467;29;20039;-94
2022/03/29 19:48:25;;;;;;;2.22;1.40;;;;;;;;;;4949385;29;20043;-94
2022/03/29 19:50:52;;;;;;;2.38;1.48;;;;;;;;;;4926125;29;20525;-95
2022/03/29 19:53:23;;;;;;;1.13;0.98;;;;;;;;;;4929810;29;20610;-95
2022/03/29 19:55:49;;;;;;;0.73;0.68;;;;;;;;;;4928820;28;20050;-94
2022/03/29 19:58:16;;;;;;;2.50;2.17;;;;;;;;;;4934352;29;20393;-95
2022/03/29 20:00:46;;;;;;;2.40;1.88;;;;;;;;;;4929787;29;20183;-94
2022/03/29 20:03:17;;;;;;;0.60;0.60;;;;;;;;;;4944684;29;20044;-93
2022/03/29 20:05:46;;;;;;;3.25;1.52;;;;;;;;;;4935586;29;20053;-95
2022/03/29 20:08:23;;;;;;;0.73;0.73;;;;;;;;;;4935590;29;20049;-94
2022/03/29 20:10:54;;;;;;;0.25;0.25;;;;;;;;;;4934140;29;20063;-94
2022/03/29 20:13:23;;;;;;;0.40;0.40;;;;;;;;;;4932166;29;20064;-95
2022/03/29 20:15:57;;;;;;;10.05;2.35;;;;;;;;;;4947979;29;20051;-93
2022/03/29 20:18:35;;;;;;;3.88;2.53;;;;;;;;;;4947724;29;20079;-94
2022/03/29 20:21:01;;;;;;;1.25;1.08;;;;;;;;;;4951523;29;20054;-93
2022/03/29 20:23:35;;;;;;;0.30;0.30;;;;;;;;;;4939858;29;20062;-94
2022/03/29 20:26:11;;;;;;;1.55;1.40;;;;;;;;;;4938209;29;20050;-95
2022/03/29 20:29:12;;;;;;;1.17;1.08;;;;;;;;;;4935835;29;20035;-95
2022/03/29 20:31:53;;;;;;;1.52;1.13;;;;;;;;;;4934738;29;20066;-94